This demonstration page uses our WeatherBlox Daily Observations layout. Learn more.

39.92423, -83.80882

Hourly Observations for April 4, 2019

Temp ( °F °C ) Dew Point ( °F °C ) Humidity (%) Winds ( mph kmh ) Pressure ( in mb ) Visibility ( mi km ) Precip ( " mm )
12:56 am 00:56 Cloudy 47 8.3 32 0 56 56 Calm 30.35 1028 10 16.0934 0 0
1:56 am 01:56 Mostly Clear 43 6.1 34 1.1 71 71 Calm 30.34 1027 10 16.0934 0 0
2:56 am 02:56 Clear 41 5 35 1.7 79 79 E 3 6 30.33 1027 10 16.0934 0 0
4:56 am 04:56 Cloudy 41 5 36 2.2 82 82 ESE 3 6 30.34 1027 10 16.0934 0 0
5:56 am 05:56 Cloudy 44 6.7 35 1.7 71 71 Calm 30.36 1028 10 16.0934 0 0.0254
6:56 am 06:56 Mostly Cloudy 42 5.6 34 1.1 73 73 Calm 30.37 1028 10 16.0934 0 0
7:56 am 07:56 Cloudy 44 6.7 35 1.7 71 71 ENE 5 7 30.4 1030 10 16.0934 0 0
8:56 am 08:56 Partly Cloudy 49 9.4 35 1.7 59 59 ENE 8 13 30.4 1030 10 16.0934 0 0
9:56 am 09:56 Sunny 52 11.1 35 1.7 53 53 E 16 26 30.4 1030 10 16.0934 0 0
10:56 am 10:56 Cloudy 53 11.7 37 2.8 55 55 ENE 21 33 30.38 1029 10 16.0934 0 0
11:56 am 11:56 Mostly Cloudy 52 11.1 38 3.3 59 59 E 16 26 30.4 1029 10 16.0934 0 0
12:56 pm 12:56 Sunny 55 12.8 40 4.4 57 57 ENE 17 28 30.37 1029 10 16.0934 0 0
1:56 pm 13:56 Cloudy 57 13.9 40 4.4 53 53 ENE 22 35 30.33 1027 10 16.0934 0 0
2:56 pm 14:56 Mostly Cloudy 59 15 39 3.9 48 48 ENE 21 33 30.31 1026 10 16.0934 0 0
3:56 pm 15:56 Sunny 58 14.4 39 3.9 50 50 ENE 20 31 30.28 1026 10 16.0934 0 0
5:56 pm 17:56 Sunny 56 13.3 40 4.4 55 55 ENE 21 33 30.24 1024 10 16.0934 0 0
6:56 pm 18:56 Sunny 54 12.2 40 4.4 59 59 E 17 28 30.22 1023 10 16.0934 0 0
7:56 pm 19:56 Sunny 52 11.1 41 5 66 66 ENE 18 30 30.2 1023 10 16.0934 0 0
8:56 pm 20:56 Clear 51 10.6 41 5 69 69 E 20 31 30.19 1022 10 16.0934 0 0
9:56 pm 21:56 Mostly Cloudy 50 10 41 5 71 71 E 15 24 30.19 1023 10 16.0934 0 0
10:56 pm 22:56 Cloudy with Light Rain 51 10.6 40 4.4 66 66 ENE 20 31 30.16 1021 10 16.0934 0 0.0254
11:56 pm 23:56 Cloudy with Light Rain 50 10 40 4.4 68 68 E 16 26 30.18 1022 10 16.0934 0 0.0254

Powered by AerisWeather